Newport, Tennessee
Current Conditions -  °F | °C
As of 4:55 PM on Saturday 25 Oct 2014 (Local Time) from KMOR Reporting Station
Scattered Clouds Scattered Clouds  
Wind Chill: 68°   Ceiling: Unl
Heat Index: 68°   Visibility: 10mi
Dew Point: 48°   Wind: 6mph
Humidity: 49%   Direction: 260°W
Pressure: 30.03"   Gusts: NA
Location:  35.97°N, 83.18°W
Report Text: KMOR 252055Z AUTO 26005KT 10SM SCT042 20/09 A3003 RMK
Loading
Personal Weather Stations






























Interactive Weather Map New forecast layout! Learn more

10-Day Weather Forecast

Advertisements
Track Severe Weather on mobile